Ebro, FL

9:05 PM CDT on August 21, 2014 (GMT -0500)
Northwest Florida Beaches International | Change Station
CLOSE
Current Station
Airport
Location: Panama City,
Elevation: 69 ft
Nearby Weather Stations
Active Advisory: Heat Advisory Active Notice: Record Report, Public Information Statement

Elev 69 ft 30.36 °N, 85.80 °W | Updated 12 minutes ago

Clear
Clear
82 °F
Feels Like 91 °F
N
0
Wind Variable Wind from North

Today
High -- | Low -- °F
--% Chance of Precip.
Yesterday
High -- | Low -- °F
Precip. -- in
6:14 AM 7:19 PM
Waning Crescent, 11% visible
Pressure 30.13 in
Visibility 10.0 miles
Clouds Clear
Heat Index 91 °F
Dew Point 78 °F
Humidity 88%
Rainfall 0.51 in
Snow Depth Not available.
UV 0 out of 12
Pollen 7.40 out of 12
Air Quality Not available.
Flu Activity Not available.
METAR KECP 220153Z 00000KT 10SM CLR 28/26 A3010 RMK AO2 SLP203 T02780256 $

More Conditions Fewer Conditions

Pressure 30.13 in
Visibility 10.0 miles
Clouds Clear
Heat Index 91 °F
Dew Point 78 °F
Humidity 88%
Rainfall 0.51 in
Snow Depth Not available.
UV 0 out of 12
Pollen 7.40 out of 12
Air Quality Not available.
Flu Activity Not available.
METAR KECP 220153Z 00000KT 10SM CLR 28/26 A3010 RMK AO2 SLP203 T02780256 $

More Conditions Fewer Conditions

10-Day Weather Forecast

Almanac

Astronomy

Aug. 21, 2014 Rise Set
Actual Time 6:14 AM CDT 7:19 PM CDT
Civil Twilight 5:49 AM CDT 7:43 PM CDT
Nautical Twilight 5:19 AM CDT 8:13 PM CDT
Astronomical Twilight 4:48 AM CDT 8:43 PM CDT
Moon 2:50 AM CDT (8/21) 4:41 PM CDT (8/21)
Length of Visible Light 13h 54m
Length of Day
13h 05m
Tomorrow will be 1m 41s shorter.
Waning Crescent, 11% of the Moon is Illuminated
Today
Waning Crescent
Aug 25
New
Sep 2
First Quarter
Sep 8
Full
Sep 15
Last Quarter

Today's Extremes

State Highs State Lows

Community

WunderPhotos

Upload Photos

1,746,107 photos uploaded!

WunderBlogs® & News

Nearby

Snow Depth

Station Depth Elevation
No new snow has been reported.

Earthquake Activity

City Distance Mag. Time & Date
No recent earthquake activity has been reported nearby.
Minimum magnitude displayed is 2.5.

Coastal Water Temperatures

Place Temperature
Panama City, FL 88.0 °F
Panama City Beach, FL 84.9 °F
Apalachicola, FL 87.1 °F

Nearby Weather Stations